sensor_id;sensor_type;location;lat;lon;timestamp;P1;P2;P0
47810;PMS5003;33575;52.600;7.318;2024-01-16T00:01:49;3;2;
47810;PMS5003;33575;52.600;7.318;2024-01-16T00:04:20;1;1;
47810;PMS5003;33575;52.600;7.318;2024-01-16T00:06:50;2;1;
47810;PMS5003;33575;52.600;7.318;2024-01-16T00:09:21;4;1;
47810;PMS5003;33575;52.600;7.318;2024-01-16T00:11:52;3;2;
47810;PMS5003;33575;52.600;7.318;2024-01-16T00:14:23;0;0;
47810;PMS5003;33575;52.600;7.318;2024-01-16T00:16:54;1;1;
47810;PMS5003;33575;52.600;7.318;2024-01-16T00:19:24;2;1;
47810;PMS5003;33575;52.600;7.318;2024-01-16T00:21:54;4;3;
47810;PMS5003;33575;52.600;7.318;2024-01-16T00:24:24;2;0;
47810;PMS5003;33575;52.600;7.318;2024-01-16T00:26:54;2;2;
47810;PMS5003;33575;52.600;7.318;2024-01-16T00:29:24;0;0;
47810;PMS5003;33575;52.600;7.318;2024-01-16T00:31:54;2;1;
47810;PMS5003;33575;52.600;7.318;2024-01-16T00:34:24;2;1;
47810;PMS5003;33575;52.600;7.318;2024-01-16T00:36:54;1;1;
47810;PMS5003;33575;52.600;7.318;2024-01-16T00:39:24;1;1;
47810;PMS5003;33575;52.600;7.318;2024-01-16T00:41:54;1;1;
47810;PMS5003;33575;52.600;7.318;2024-01-16T00:44:24;0;0;
47810;PMS5003;33575;52.600;7.318;2024-01-16T00:46:54;2;1;
47810;PMS5003;33575;52.600;7.318;2024-01-16T00:49:24;1;0;
47810;PMS5003;33575;52.600;7.318;2024-01-16T00:51:55;6;3;
47810;PMS5003;33575;52.600;7.318;2024-01-16T00:54:25;4;2;
47810;PMS5003;33575;52.600;7.318;2024-01-16T00:56:55;0;0;
47810;PMS5003;33575;52.600;7.318;2024-01-16T00:59:25;2;1;
47810;PMS5003;33575;52.600;7.318;2024-01-16T01:01:56;52;27;
47810;PMS5003;33575;52.600;7.318;2024-01-16T01:04:27;1;0;
47810;PMS5003;33575;52.600;7.318;2024-01-16T01:06:58;1;1;
47810;PMS5003;33575;52.600;7.318;2024-01-16T01:09:29;2;1;
47810;PMS5003;33575;52.600;7.318;2024-01-16T01:11:59;1;1;
47810;PMS5003;33575;52.600;7.318;2024-01-16T01:14:29;1;1;
47810;PMS5003;33575;52.600;7.318;2024-01-16T01:16:59;2;0;
47810;PMS5003;33575;52.600;7.318;2024-01-16T01:19:29;2;1;
47810;PMS5003;33575;52.600;7.318;2024-01-16T01:21:59;1;1;
47810;PMS5003;33575;52.600;7.318;2024-01-16T01:24:29;1;0;
47810;PMS5003;33575;52.600;7.318;2024-01-16T01:26:59;2;0;
47810;PMS5003;33575;52.600;7.318;2024-01-16T01:29:29;1;1;
47810;PMS5003;33575;52.600;7.318;2024-01-16T01:31:59;0;0;
47810;PMS5003;33575;52.600;7.318;2024-01-16T01:34:29;3;1;
47810;PMS5003;33575;52.600;7.318;2024-01-16T01:36:59;2;1;
47810;PMS5003;33575;52.600;7.318;2024-01-16T01:39:29;1;1;
47810;PMS5003;33575;52.600;7.318;2024-01-16T01:42:00;3;0;
47810;PMS5003;33575;52.600;7.318;2024-01-16T01:44:30;2;1;
47810;PMS5003;33575;52.600;7.318;2024-01-16T02:12:58;1;1;
47810;PMS5003;33575;52.600;7.318;2024-01-16T02:14:46;1;1;
47810;PMS5003;33575;52.600;7.318;2024-01-16T02:17:17;0;0;
47810;PMS5003;33575;52.600;7.318;2024-01-16T02:19:47;2;1;
47810;PMS5003;33575;52.600;7.318;2024-01-16T02:22:19;1;1;
47810;PMS5003;33575;52.600;7.318;2024-01-16T02:24:48;1;1;
47810;PMS5003;33575;52.600;7.318;2024-01-16T02:27:18;0;0;
47810;PMS5003;33575;52.600;7.318;2024-01-16T02:29:49;1;1;
47810;PMS5003;33575;52.600;7.318;2024-01-16T02:32:19;2;1;
47810;PMS5003;33575;52.600;7.318;2024-01-16T02:34:49;0;0;
47810;PMS5003;33575;52.600;7.318;2024-01-16T02:37:19;0;0;
47810;PMS5003;33575;52.600;7.318;2024-01-16T02:39:50;1;0;
47810;PMS5003;33575;52.600;7.318;2024-01-16T02:42:20;2;1;
47810;PMS5003;33575;52.600;7.318;2024-01-16T02:44:51;2;1;
47810;PMS5003;33575;52.600;7.318;2024-01-16T02:47:21;2;2;
47810;PMS5003;33575;52.600;7.318;2024-01-16T02:49:52;1;1;
47810;PMS5003;33575;52.600;7.318;2024-01-16T02:52:22;1;1;
47810;PMS5003;33575;52.600;7.318;2024-01-16T02:54:52;1;1;
47810;PMS5003;33575;52.600;7.318;2024-01-16T02:57:23;2;1;
47810;PMS5003;33575;52.600;7.318;2024-01-16T02:59:53;1;1;
47810;PMS5003;33575;52.600;7.318;2024-01-16T03:02:24;1;1;
47810;PMS5003;33575;52.600;7.318;2024-01-16T03:04:54;3;3;
47810;PMS5003;33575;52.600;7.318;2024-01-16T03:07:24;0;0;
47810;PMS5003;33575;52.600;7.318;2024-01-16T03:09:54;1;1;
47810;PMS5003;33575;52.600;7.318;2024-01-16T03:12:25;2;2;
47810;PMS5003;33575;52.600;7.318;2024-01-16T03:14:55;2;1;
47810;PMS5003;33575;52.600;7.318;2024-01-16T03:17:26;2;1;
47810;PMS5003;33575;52.600;7.318;2024-01-16T03:19:56;1;1;
47810;PMS5003;33575;52.600;7.318;2024-01-16T03:22:26;3;2;
47810;PMS5003;33575;52.600;7.318;2024-01-16T03:24:56;2;2;
47810;PMS5003;33575;52.600;7.318;2024-01-16T03:27:27;1;1;
47810;PMS5003;33575;52.600;7.318;2024-01-16T03:29:57;4;1;
47810;PMS5003;33575;52.600;7.318;2024-01-16T03:32:27;1;0;
47810;PMS5003;33575;52.600;7.318;2024-01-16T03:34:57;0;0;
47810;PMS5003;33575;52.600;7.318;2024-01-16T03:37:27;3;1;
47810;PMS5003;33575;52.600;7.318;2024-01-16T03:39:58;0;0;
47810;PMS5003;33575;52.600;7.318;2024-01-16T03:42:28;1;1;
47810;PMS5003;33575;52.600;7.318;2024-01-16T03:44:58;1;1;
47810;PMS5003;33575;52.600;7.318;2024-01-16T03:47:28;4;3;
47810;PMS5003;33575;52.600;7.318;2024-01-16T03:49:58;4;4;
47810;PMS5003;33575;52.600;7.318;2024-01-16T03:52:28;3;3;
47810;PMS5003;33575;52.600;7.318;2024-01-16T03:54:59;2;2;
47810;PMS5003;33575;52.600;7.318;2024-01-16T03:57:29;3;3;
47810;PMS5003;33575;52.600;7.318;2024-01-16T03:59:59;1;1;
47810;PMS5003;33575;52.600;7.318;2024-01-16T04:02:29;3;2;
47810;PMS5003;33575;52.600;7.318;2024-01-16T04:04:59;3;2;
47810;PMS5003;33575;52.600;7.318;2024-01-16T04:07:29;4;2;
47810;PMS5003;33575;52.600;7.318;2024-01-16T04:09:59;3;2;
47810;PMS5003;33575;52.600;7.318;2024-01-16T04:12:29;4;3;
47810;PMS5003;33575;52.600;7.318;2024-01-16T04:14:59;2;2;
47810;PMS5003;33575;52.600;7.318;2024-01-16T04:17:30;3;2;
47810;PMS5003;33575;52.600;7.318;2024-01-16T04:19:59;3;3;
47810;PMS5003;33575;52.600;7.318;2024-01-16T04:22:30;4;3;
47810;PMS5003;33575;52.600;7.318;2024-01-16T04:25:00;3;3;
47810;PMS5003;33575;52.600;7.318;2024-01-16T04:27:30;10;5;
47810;PMS5003;33575;52.600;7.318;2024-01-16T04:30:00;2;2;
47810;PMS5003;33575;52.600;7.318;2024-01-16T04:32:30;4;3;
47810;PMS5003;33575;52.600;7.318;2024-01-16T04:35:00;3;3;
47810;PMS5003;33575;52.600;7.318;2024-01-16T04:37:30;4;3;
47810;PMS5003;33575;52.600;7.318;2024-01-16T04:40:01;6;5;
47810;PMS5003;33575;52.600;7.318;2024-01-16T04:42:31;3;3;
47810;PMS5003;33575;52.600;7.318;2024-01-16T04:45:01;4;3;
47810;PMS5003;33575;52.600;7.318;2024-01-16T04:47:31;7;6;
47810;PMS5003;33575;52.600;7.318;2024-01-16T04:50:01;5;4;
47810;PMS5003;33575;52.600;7.318;2024-01-16T04:52:31;6;6;
47810;PMS5003;33575;52.600;7.318;2024-01-16T04:55:01;5;5;
47810;PMS5003;33575;52.600;7.318;2024-01-16T04:57:31;4;3;
47810;PMS5003;33575;52.600;7.318;2024-01-16T05:00:02;4;3;
47810;PMS5003;33575;52.600;7.318;2024-01-16T05:02:32;4;3;
47810;PMS5003;33575;52.600;7.318;2024-01-16T05:05:02;5;3;
47810;PMS5003;33575;52.600;7.318;2024-01-16T05:07:32;4;3;
47810;PMS5003;33575;52.600;7.318;2024-01-16T05:10:02;4;4;
47810;PMS5003;33575;52.600;7.318;2024-01-16T05:12:32;4;4;
47810;PMS5003;33575;52.600;7.318;2024-01-16T05:15:02;5;4;
47810;PMS5003;33575;52.600;7.318;2024-01-16T05:17:32;4;4;
47810;PMS5003;33575;52.600;7.318;2024-01-16T05:20:03;4;3;
47810;PMS5003;33575;52.600;7.318;2024-01-16T05:22:32;4;3;
47810;PMS5003;33575;52.600;7.318;2024-01-16T05:25:03;5;5;
47810;PMS5003;33575;52.600;7.318;2024-01-16T05:27:33;6;5;
47810;PMS5003;33575;52.600;7.318;2024-01-16T05:30:03;4;4;
47810;PMS5003;33575;52.600;7.318;2024-01-16T05:32:33;4;4;
47810;PMS5003;33575;52.600;7.318;2024-01-16T05:35:03;8;5;
47810;PMS5003;33575;52.600;7.318;2024-01-16T05:37:33;5;5;
47810;PMS5003;33575;52.600;7.318;2024-01-16T05:40:04;5;4;
47810;PMS5003;33575;52.600;7.318;2024-01-16T05:42:34;5;5;
47810;PMS5003;33575;52.600;7.318;2024-01-16T05:45:05;4;4;
47810;PMS5003;33575;52.600;7.318;2024-01-16T05:47:35;4;4;
47810;PMS5003;33575;52.600;7.318;2024-01-16T05:50:05;6;4;
47810;PMS5003;33575;52.600;7.318;2024-01-16T05:52:35;4;3;
47810;PMS5003;33575;52.600;7.318;2024-01-16T05:55:05;3;3;
47810;PMS5003;33575;52.600;7.318;2024-01-16T05:57:35;7;5;
47810;PMS5003;33575;52.600;7.318;2024-01-16T06:00:06;4;3;
47810;PMS5003;33575;52.600;7.318;2024-01-16T06:02:35;3;3;
47810;PMS5003;33575;52.600;7.318;2024-01-16T06:05:05;2;2;
47810;PMS5003;33575;52.600;7.318;2024-01-16T06:07:35;9;5;
47810;PMS5003;33575;52.600;7.318;2024-01-16T06:10:07;5;3;
47810;PMS5003;33575;52.600;7.318;2024-01-16T06:12:36;4;3;
47810;PMS5003;33575;52.600;7.318;2024-01-16T06:15:06;6;4;
47810;PMS5003;33575;52.600;7.318;2024-01-16T06:17:36;3;3;
47810;PMS5003;33575;52.600;7.318;2024-01-16T06:20:06;2;2;
47810;PMS5003;33575;52.600;7.318;2024-01-16T06:22:36;3;3;
47810;PMS5003;33575;52.600;7.318;2024-01-16T06:25:06;7;5;
47810;PMS5003;33575;52.600;7.318;2024-01-16T06:27:36;4;4;
47810;PMS5003;33575;52.600;7.318;2024-01-16T06:30:07;5;5;
47810;PMS5003;33575;52.600;7.318;2024-01-16T06:32:37;4;4;
47810;PMS5003;33575;52.600;7.318;2024-01-16T06:35:07;3;3;
47810;PMS5003;33575;52.600;7.318;2024-01-16T06:37:37;4;4;
47810;PMS5003;33575;52.600;7.318;2024-01-16T06:40:07;4;4;
47810;PMS5003;33575;52.600;7.318;2024-01-16T06:42:37;4;4;
47810;PMS5003;33575;52.600;7.318;2024-01-16T06:45:07;6;5;
47810;PMS5003;33575;52.600;7.318;2024-01-16T06:47:37;4;4;
47810;PMS5003;33575;52.600;7.318;2024-01-16T06:50:08;164;61;
47810;PMS5003;33575;52.600;7.318;2024-01-16T06:52:38;6;5;
47810;PMS5003;33575;52.600;7.318;2024-01-16T06:55:08;4;4;
47810;PMS5003;33575;52.600;7.318;2024-01-16T06:57:38;3;3;
47810;PMS5003;33575;52.600;7.318;2024-01-16T07:00:09;6;6;
47810;PMS5003;33575;52.600;7.318;2024-01-16T07:02:38;5;4;
47810;PMS5003;33575;52.600;7.318;2024-01-16T07:05:08;4;4;
47810;PMS5003;33575;52.600;7.318;2024-01-16T07:07:38;5;5;
47810;PMS5003;33575;52.600;7.318;2024-01-16T07:10:09;5;4;
47810;PMS5003;33575;52.600;7.318;2024-01-16T07:12:39;4;3;
47810;PMS5003;33575;52.600;7.318;2024-01-16T07:15:09;3;3;
47810;PMS5003;33575;52.600;7.318;2024-01-16T07:17:39;3;3;
47810;PMS5003;33575;52.600;7.318;2024-01-16T07:20:09;2;2;
47810;PMS5003;33575;52.600;7.318;2024-01-16T07:22:39;3;3;
47810;PMS5003;33575;52.600;7.318;2024-01-16T07:25:09;4;4;
47810;PMS5003;33575;52.600;7.318;2024-01-16T07:27:39;5;4;
47810;PMS5003;33575;52.600;7.318;2024-01-16T07:30:10;4;3;
47810;PMS5003;33575;52.600;7.318;2024-01-16T07:32:40;4;4;
47810;PMS5003;33575;52.600;7.318;2024-01-16T07:35:10;5;4;
47810;PMS5003;33575;52.600;7.318;2024-01-16T07:37:40;3;3;
47810;PMS5003;33575;52.600;7.318;2024-01-16T07:40:10;4;3;
47810;PMS5003;33575;52.600;7.318;2024-01-16T07:42:40;5;3;
47810;PMS5003;33575;52.600;7.318;2024-01-16T07:45:10;5;4;
47810;PMS5003;33575;52.600;7.318;2024-01-16T07:47:40;4;4;
47810;PMS5003;33575;52.600;7.318;2024-01-16T07:50:10;6;6;
47810;PMS5003;33575;52.600;7.318;2024-01-16T07:52:41;7;6;
47810;PMS5003;33575;52.600;7.318;2024-01-16T07:55:11;5;4;
47810;PMS5003;33575;52.600;7.318;2024-01-16T07:57:41;8;6;
47810;PMS5003;33575;52.600;7.318;2024-01-16T08:00:12;5;3;
47810;PMS5003;33575;52.600;7.318;2024-01-16T08:02:41;5;4;
47810;PMS5003;33575;52.600;7.318;2024-01-16T08:05:12;6;5;
47810;PMS5003;33575;52.600;7.318;2024-01-16T08:07:42;8;6;
47810;PMS5003;33575;52.600;7.318;2024-01-16T08:10:12;10;7;
47810;PMS5003;33575;52.600;7.318;2024-01-16T08:12:42;7;6;
47810;PMS5003;33575;52.600;7.318;2024-01-16T08:15:12;7;4;
47810;PMS5003;33575;52.600;7.318;2024-01-16T08:17:43;7;6;
47810;PMS5003;33575;52.600;7.318;2024-01-16T08:20:13;6;5;
47810;PMS5003;33575;52.600;7.318;2024-01-16T08:22:43;7;6;
47810;PMS5003;33575;52.600;7.318;2024-01-16T08:25:13;5;5;
47810;PMS5003;33575;52.600;7.318;2024-01-16T08:27:43;6;5;
47810;PMS5003;33575;52.600;7.318;2024-01-16T08:30:13;5;5;
47810;PMS5003;33575;52.600;7.318;2024-01-16T08:32:43;4;4;
47810;PMS5003;33575;52.600;7.318;2024-01-16T08:35:14;7;6;
47810;PMS5003;33575;52.600;7.318;2024-01-16T08:37:43;4;4;
47810;PMS5003;33575;52.600;7.318;2024-01-16T08:40:14;5;5;
47810;PMS5003;33575;52.600;7.318;2024-01-16T08:42:44;8;6;
47810;PMS5003;33575;52.600;7.318;2024-01-16T08:45:14;7;7;
47810;PMS5003;33575;52.600;7.318;2024-01-16T08:47:44;6;6;
47810;PMS5003;33575;52.600;7.318;2024-01-16T08:50:14;8;6;
47810;PMS5003;33575;52.600;7.318;2024-01-16T08:52:44;8;8;
47810;PMS5003;33575;52.600;7.318;2024-01-16T08:55:15;8;8;
47810;PMS5003;33575;52.600;7.318;2024-01-16T08:57:45;8;7;
47810;PMS5003;33575;52.600;7.318;2024-01-16T09:00:15;7;7;
47810;PMS5003;33575;52.600;7.318;2024-01-16T09:02:45;10;9;
47810;PMS5003;33575;52.600;7.318;2024-01-16T09:05:15;9;9;
47810;PMS5003;33575;52.600;7.318;2024-01-16T09:07:46;9;8;
47810;PMS5003;33575;52.600;7.318;2024-01-16T09:10:16;11;8;
47810;PMS5003;33575;52.600;7.318;2024-01-16T09:12:46;8;8;
47810;PMS5003;33575;52.600;7.318;2024-01-16T09:15:16;11;10;
47810;PMS5003;33575;52.600;7.318;2024-01-16T09:17:46;9;8;
47810;PMS5003;33575;52.600;7.318;2024-01-16T09:20:17;12;11;
47810;PMS5003;33575;52.600;7.318;2024-01-16T09:22:47;9;9;
47810;PMS5003;33575;52.600;7.318;2024-01-16T09:25:17;9;9;
47810;PMS5003;33575;52.600;7.318;2024-01-16T09:27:47;10;9;
47810;PMS5003;33575;52.600;7.318;2024-01-16T09:30:17;10;10;
47810;PMS5003;33575;52.600;7.318;2024-01-16T09:32:47;10;10;
47810;PMS5003;33575;52.600;7.318;2024-01-16T09:35:17;10;10;
47810;PMS5003;33575;52.600;7.318;2024-01-16T09:37:47;11;10;
47810;PMS5003;33575;52.600;7.318;2024-01-16T09:40:17;11;11;
47810;PMS5003;33575;52.600;7.318;2024-01-16T09:42:47;10;10;
47810;PMS5003;33575;52.600;7.318;2024-01-16T09:45:19;16;13;
47810;PMS5003;33575;52.600;7.318;2024-01-16T09:47:49;19;14;
47810;PMS5003;33575;52.600;7.318;2024-01-16T09:50:18;14;13;
47810;PMS5003;33575;52.600;7.318;2024-01-16T09:52:48;14;12;
47810;PMS5003;33575;52.600;7.318;2024-01-16T09:55:18;11;11;
47810;PMS5003;33575;52.600;7.318;2024-01-16T09:57:49;10;10;
47810;PMS5003;33575;52.600;7.318;2024-01-16T10:00:19;11;11;
47810;PMS5003;33575;52.600;7.318;2024-01-16T10:02:49;12;11;
47810;PMS5003;33575;52.600;7.318;2024-01-16T10:05:19;12;10;
47810;PMS5003;33575;52.600;7.318;2024-01-16T10:07:49;13;13;
47810;PMS5003;33575;52.600;7.318;2024-01-16T10:10:24;15;13;
47810;PMS5003;33575;52.600;7.318;2024-01-16T10:12:49;14;13;
47810;PMS5003;33575;52.600;7.318;2024-01-16T10:15:19;12;11;
47810;PMS5003;33575;52.600;7.318;2024-01-16T10:17:49;14;12;
47810;PMS5003;33575;52.600;7.318;2024-01-16T10:22:52;14;13;
47810;PMS5003;33575;52.600;7.318;2024-01-16T10:25:20;12;11;
47810;PMS5003;33575;52.600;7.318;2024-01-16T10:27:50;13;12;
47810;PMS5003;33575;52.600;7.318;2024-01-16T10:30:21;9;8;
47810;PMS5003;33575;52.600;7.318;2024-01-16T10:32:50;15;13;
47810;PMS5003;33575;52.600;7.318;2024-01-16T10:35:20;14;12;
47810;PMS5003;33575;52.600;7.318;2024-01-16T10:37:50;13;12;
47810;PMS5003;33575;52.600;7.318;2024-01-16T10:40:24;14;12;
47810;PMS5003;33575;52.600;7.318;2024-01-16T10:45:20;13;12;
47810;PMS5003;33575;52.600;7.318;2024-01-16T10:47:55;15;12;
47810;PMS5003;33575;52.600;7.318;2024-01-16T10:50:20;13;12;
47810;PMS5003;33575;52.600;7.318;2024-01-16T10:52:50;13;10;
47810;PMS5003;33575;52.600;7.318;2024-01-16T10:55:21;11;10;
47810;PMS5003;33575;52.600;7.318;2024-01-16T10:57:51;13;12;
47810;PMS5003;33575;52.600;7.318;2024-01-16T11:00:21;11;10;
47810;PMS5003;33575;52.600;7.318;2024-01-16T11:02:54;10;9;
47810;PMS5003;33575;52.600;7.318;2024-01-16T11:05:22;14;13;
47810;PMS5003;33575;52.600;7.318;2024-01-16T11:07:52;11;11;
47810;PMS5003;33575;52.600;7.318;2024-01-16T11:10:21;9;9;
47810;PMS5003;33575;52.600;7.318;2024-01-16T11:12:52;14;11;
47810;PMS5003;33575;52.600;7.318;2024-01-16T11:15:22;11;10;
47810;PMS5003;33575;52.600;7.318;2024-01-16T11:17:52;12;11;
47810;PMS5003;33575;52.600;7.318;2024-01-16T11:20:28;10;10;
47810;PMS5003;33575;52.600;7.318;2024-01-16T11:22:53;12;12;
47810;PMS5003;33575;52.600;7.318;2024-01-16T11:25:24;11;10;
47810;PMS5003;33575;52.600;7.318;2024-01-16T11:27:54;11;11;
47810;PMS5003;33575;52.600;7.318;2024-01-16T11:30:29;11;11;
47810;PMS5003;33575;52.600;7.318;2024-01-16T11:32:56;10;9;
47810;PMS5003;33575;52.600;7.318;2024-01-16T11:35:31;9;9;
47810;PMS5003;33575;52.600;7.318;2024-01-16T11:38:02;10;10;
47810;PMS5003;33575;52.600;7.318;2024-01-16T11:40:32;18;12;
47810;PMS5003;33575;52.600;7.318;2024-01-16T11:42:58;13;11;
47810;PMS5003;33575;52.600;7.318;2024-01-16T11:50:29;11;11;
47810;PMS5003;33575;52.600;7.318;2024-01-16T11:53:00;16;12;
47810;PMS5003;33575;52.600;7.318;2024-01-16T11:55:31;15;13;
47810;PMS5003;33575;52.600;7.318;2024-01-16T11:58:08;17;15;
47810;PMS5003;33575;52.600;7.318;2024-01-16T12:00:31;11;11;
47810;PMS5003;33575;52.600;7.318;2024-01-16T12:03:02;19;13;
47810;PMS5003;33575;52.600;7.318;2024-01-16T12:05:33;15;14;
47810;PMS5003;33575;52.600;7.318;2024-01-16T12:08:04;16;15;
47810;PMS5003;33575;52.600;7.318;2024-01-16T12:10:35;16;16;
47810;PMS5003;33575;52.600;7.318;2024-01-16T12:13:06;17;16;
47810;PMS5003;33575;52.600;7.318;2024-01-16T12:15:35;20;19;
47810;PMS5003;33575;52.600;7.318;2024-01-16T12:18:06;20;17;
47810;PMS5003;33575;52.600;7.318;2024-01-16T12:20:36;29;17;
47810;PMS5003;33575;52.600;7.318;2024-01-16T12:23:07;19;17;
47810;PMS5003;33575;52.600;7.318;2024-01-16T12:25:42;24;19;
47810;PMS5003;33575;52.600;7.318;2024-01-16T12:28:08;20;19;
47810;PMS5003;33575;52.600;7.318;2024-01-16T12:30:37;28;21;
47810;PMS5003;33575;52.600;7.318;2024-01-16T12:33:13;31;26;
47810;PMS5003;33575;52.600;7.318;2024-01-16T12:35:38;24;22;
47810;PMS5003;33575;52.600;7.318;2024-01-16T12:38:10;22;22;
47810;PMS5003;33575;52.600;7.318;2024-01-16T12:40:39;26;25;
47810;PMS5003;33575;52.600;7.318;2024-01-16T12:43:09;26;23;
47810;PMS5003;33575;52.600;7.318;2024-01-16T12:45:39;28;26;
47810;PMS5003;33575;52.600;7.318;2024-01-16T12:48:10;23;22;
47810;PMS5003;33575;52.600;7.318;2024-01-16T12:50:40;29;27;
47810;PMS5003;33575;52.600;7.318;2024-01-16T12:53:10;21;21;
47810;PMS5003;33575;52.600;7.318;2024-01-16T12:55:40;25;24;
47810;PMS5003;33575;52.600;7.318;2024-01-16T12:58:13;26;25;
47810;PMS5003;33575;52.600;7.318;2024-01-16T13:00:40;36;30;
47810;PMS5003;33575;52.600;7.318;2024-01-16T13:05:41;31;25;
47810;PMS5003;33575;52.600;7.318;2024-01-16T13:10:41;29;25;
47810;PMS5003;33575;52.600;7.318;2024-01-16T13:13:12;26;22;
47810;PMS5003;33575;52.600;7.318;2024-01-16T13:15:42;24;23;
47810;PMS5003;33575;52.600;7.318;2024-01-16T13:18:17;23;22;
47810;PMS5003;33575;52.600;7.318;2024-01-16T13:20:42;23;23;
47810;PMS5003;33575;52.600;7.318;2024-01-16T13:23:13;21;20;
47810;PMS5003;33575;52.600;7.318;2024-01-16T13:25:43;24;22;
47810;PMS5003;33575;52.600;7.318;2024-01-16T13:28:14;21;21;
47810;PMS5003;33575;52.600;7.318;2024-01-16T13:30:48;23;23;
47810;PMS5003;33575;52.600;7.318;2024-01-16T13:33:15;23;23;
47810;PMS5003;33575;52.600;7.318;2024-01-16T13:35:45;24;24;
47810;PMS5003;33575;52.600;7.318;2024-01-16T13:38:15;20;20;
47810;PMS5003;33575;52.600;7.318;2024-01-16T13:40:46;21;21;
47810;PMS5003;33575;52.600;7.318;2024-01-16T13:43:16;27;23;
47810;PMS5003;33575;52.600;7.318;2024-01-16T13:45:47;22;21;
47810;PMS5003;33575;52.600;7.318;2024-01-16T13:48:18;21;21;
47810;PMS5003;33575;52.600;7.318;2024-01-16T13:50:50;20;19;
47810;PMS5003;33575;52.600;7.318;2024-01-16T13:53:20;20;18;
47810;PMS5003;33575;52.600;7.318;2024-01-16T13:55:50;18;16;
47810;PMS5003;33575;52.600;7.318;2024-01-16T13:58:20;20;20;
47810;PMS5003;33575;52.600;7.318;2024-01-16T14:00:50;21;19;
47810;PMS5003;33575;52.600;7.318;2024-01-16T14:03:20;18;16;
47810;PMS5003;33575;52.600;7.318;2024-01-16T14:05:50;19;18;
47810;PMS5003;33575;52.600;7.318;2024-01-16T14:08:20;15;15;
47810;PMS5003;33575;52.600;7.318;2024-01-16T14:10:51;18;16;
47810;PMS5003;33575;52.600;7.318;2024-01-16T14:13:21;16;15;
47810;PMS5003;33575;52.600;7.318;2024-01-16T14:15:52;16;16;
47810;PMS5003;33575;52.600;7.318;2024-01-16T14:18:23;16;15;
47810;PMS5003;33575;52.600;7.318;2024-01-16T14:20:53;22;16;
47810;PMS5003;33575;52.600;7.318;2024-01-16T14:23:24;14;13;
47810;PMS5003;33575;52.600;7.318;2024-01-16T14:25:54;14;14;
47810;PMS5003;33575;52.600;7.318;2024-01-16T14:28:30;14;12;
47810;PMS5003;33575;52.600;7.318;2024-01-16T14:30:55;18;15;
47810;PMS5003;33575;52.600;7.318;2024-01-16T14:33:26;16;14;
47810;PMS5003;33575;52.600;7.318;2024-01-16T14:35:59;14;13;
47810;PMS5003;33575;52.600;7.318;2024-01-16T14:38:28;14;13;
47810;PMS5003;33575;52.600;7.318;2024-01-16T14:40:59;13;12;
47810;PMS5003;33575;52.600;7.318;2024-01-16T14:43:29;19;14;
47810;PMS5003;33575;52.600;7.318;2024-01-16T14:46:00;13;12;
47810;PMS5003;33575;52.600;7.318;2024-01-16T14:48:30;13;13;
47810;PMS5003;33575;52.600;7.318;2024-01-16T14:51:02;14;13;
47810;PMS5003;33575;52.600;7.318;2024-01-16T14:53:31;21;12;
47810;PMS5003;33575;52.600;7.318;2024-01-16T14:56:02;14;12;
47810;PMS5003;33575;52.600;7.318;2024-01-16T14:58:32;14;13;
47810;PMS5003;33575;52.600;7.318;2024-01-16T15:01:02;15;15;
47810;PMS5003;33575;52.600;7.318;2024-01-16T15:03:32;13;11;
47810;PMS5003;33575;52.600;7.318;2024-01-16T15:06:03;12;12;
47810;PMS5003;33575;52.600;7.318;2024-01-16T15:08:33;12;11;
47810;PMS5003;33575;52.600;7.318;2024-01-16T15:11:03;11;10;
47810;PMS5003;33575;52.600;7.318;2024-01-16T15:13:33;12;12;
47810;PMS5003;33575;52.600;7.318;2024-01-16T15:16:03;11;11;
47810;PMS5003;33575;52.600;7.318;2024-01-16T15:18:33;17;12;
47810;PMS5003;33575;52.600;7.318;2024-01-16T15:21:04;12;12;
47810;PMS5003;33575;52.600;7.318;2024-01-16T15:23:33;13;12;
47810;PMS5003;33575;52.600;7.318;2024-01-16T15:26:03;12;12;
47810;PMS5003;33575;52.600;7.318;2024-01-16T15:28:45;14;12;
47810;PMS5003;33575;52.600;7.318;2024-01-16T15:31:04;13;11;
47810;PMS5003;33575;52.600;7.318;2024-01-16T15:33:34;13;12;
47810;PMS5003;33575;52.600;7.318;2024-01-16T15:36:05;16;13;
47810;PMS5003;33575;52.600;7.318;2024-01-16T15:38:35;14;13;
47810;PMS5003;33575;52.600;7.318;2024-01-16T15:41:05;13;13;
47810;PMS5003;33575;52.600;7.318;2024-01-16T15:43:35;14;12;
47810;PMS5003;33575;52.600;7.318;2024-01-16T15:46:05;13;13;
47810;PMS5003;33575;52.600;7.318;2024-01-16T15:48:36;13;13;
47810;PMS5003;33575;52.600;7.318;2024-01-16T15:51:08;15;13;
47810;PMS5003;33575;52.600;7.318;2024-01-16T15:53:36;12;12;
47810;PMS5003;33575;52.600;7.318;2024-01-16T15:56:05;13;13;
47810;PMS5003;33575;52.600;7.318;2024-01-16T15:58:35;13;11;
47810;PMS5003;33575;52.600;7.318;2024-01-16T16:01:06;13;12;
47810;PMS5003;33575;52.600;7.318;2024-01-16T16:03:36;14;12;
47810;PMS5003;33575;52.600;7.318;2024-01-16T16:06:07;13;13;
47810;PMS5003;33575;52.600;7.318;2024-01-16T16:08:36;14;13;
47810;PMS5003;33575;52.600;7.318;2024-01-16T16:11:06;12;12;
47810;PMS5003;33575;52.600;7.318;2024-01-16T16:13:36;13;13;
47810;PMS5003;33575;52.600;7.318;2024-01-16T16:16:06;16;15;
47810;PMS5003;33575;52.600;7.318;2024-01-16T16:18:37;16;15;
47810;PMS5003;33575;52.600;7.318;2024-01-16T16:21:07;14;12;
47810;PMS5003;33575;52.600;7.318;2024-01-16T16:23:38;15;12;
47810;PMS5003;33575;52.600;7.318;2024-01-16T16:26:08;13;13;
47810;PMS5003;33575;52.600;7.318;2024-01-16T16:28:38;14;13;
47810;PMS5003;33575;52.600;7.318;2024-01-16T16:31:08;13;12;
47810;PMS5003;33575;52.600;7.318;2024-01-16T16:33:39;12;12;
47810;PMS5003;33575;52.600;7.318;2024-01-16T16:36:08;13;13;
47810;PMS5003;33575;52.600;7.318;2024-01-16T16:38:39;16;14;
47810;PMS5003;33575;52.600;7.318;2024-01-16T16:41:09;12;12;
47810;PMS5003;33575;52.600;7.318;2024-01-16T16:43:39;13;13;
47810;PMS5003;33575;52.600;7.318;2024-01-16T16:46:09;17;17;
47810;PMS5003;33575;52.600;7.318;2024-01-16T16:48:44;15;15;
47810;PMS5003;33575;52.600;7.318;2024-01-16T16:51:11;14;13;
47810;PMS5003;33575;52.600;7.318;2024-01-16T16:53:45;17;16;
47810;PMS5003;33575;52.600;7.318;2024-01-16T16:56:12;18;17;
47810;PMS5003;33575;52.600;7.318;2024-01-16T16:58:43;20;18;
47810;PMS5003;33575;52.600;7.318;2024-01-16T17:01:13;23;18;
47810;PMS5003;33575;52.600;7.318;2024-01-16T17:03:43;27;22;
47810;PMS5003;33575;52.600;7.318;2024-01-16T17:06:14;21;18;
47810;PMS5003;33575;52.600;7.318;2024-01-16T17:08:45;17;17;
47810;PMS5003;33575;52.600;7.318;2024-01-16T17:11:15;22;21;
47810;PMS5003;33575;52.600;7.318;2024-01-16T17:13:45;16;16;
47810;PMS5003;33575;52.600;7.318;2024-01-16T17:16:16;31;24;
47810;PMS5003;33575;52.600;7.318;2024-01-16T17:18:47;25;20;
47810;PMS5003;33575;52.600;7.318;2024-01-16T17:21:17;22;19;
47810;PMS5003;33575;52.600;7.318;2024-01-16T17:23:47;19;19;
47810;PMS5003;33575;52.600;7.318;2024-01-16T17:26:17;20;18;
47810;PMS5003;33575;52.600;7.318;2024-01-16T17:28:47;19;18;
47810;PMS5003;33575;52.600;7.318;2024-01-16T17:31:17;18;18;
47810;PMS5003;33575;52.600;7.318;2024-01-16T17:33:48;22;21;
47810;PMS5003;33575;52.600;7.318;2024-01-16T17:36:18;23;19;